Time;durP1;ratioP1;P1;durP2;ratioP2;P2;SDS_P1;SDS_P2;PMS_P1;PMS_P2;Temp;Humidity;BMP_temperature;BMP_pressure;BME280_temperature;BME280_humidity;BME280_pressure;Samples;Min_cycle;Max_cycle;Signal;HPM_P1;HPM_P2
2022/08/19 00:01:29;;;;;;;9.73;1.55;;;;;;;15.00;100.00;99917.16;5039552;28;20494;-82
2022/08/19 00:04:01;;;;;;;6.25;1.42;;;;;;;14.88;100.00;99917.16;5046464;28;20068;-82
2022/08/19 00:06:29;;;;;;;7.30;1.73;;;;;;;14.88;100.00;99927.72;5051228;28;20139;-82
2022/08/19 00:08:57;;;;;;;10.32;1.83;;;;;;;14.80;100.00;99925.59;5051365;28;20040;-82
2022/08/19 00:11:25;;;;;;;7.13;1.65;;;;;;;14.90;100.00;99936.34;5051142;28;20045;-82
2022/08/19 00:13:53;;;;;;;7.07;1.58;;;;;;;14.67;100.00;99917.66;5051252;28;20057;-82
2022/08/19 00:16:24;;;;;;;8.82;1.75;;;;;;;14.54;100.00;99915.00;5051574;28;20045;-83
2022/08/19 00:18:53;;;;;;;8.82;2.10;;;;;;;14.46;100.00;99895.38;5051790;28;20045;-83
2022/08/19 00:21:20;;;;;;;8.88;1.85;;;;;;;14.65;100.00;99913.47;5050596;28;20052;-83
2022/08/19 00:23:47;;;;;;;7.75;1.85;;;;;;;14.49;100.00;99911.00;5050964;28;20051;-85
2022/08/19 00:26:14;;;;;;;8.70;2.17;;;;;;;14.48;100.00;99911.94;5037176;28;20407;-84
2022/08/19 00:28:41;;;;;;;6.65;1.70;;;;;;;14.42;100.00;99910.56;5051000;28;20056;-83
2022/08/19 00:31:08;;;;;;;7.05;1.25;;;;;;;14.46;100.00;99942.78;5050929;28;20049;-84
2022/08/19 00:33:36;;;;;;;7.13;1.65;;;;;;;14.46;100.00;99946.25;5050793;28;20414;-82
2022/08/19 00:36:06;;;;;;;6.85;1.70;;;;;;;14.33;100.00;99946.25;5049427;28;20045;-84
2022/08/19 00:38:34;;;;;;;9.25;1.65;;;;;;;14.32;100.00;99962.13;5031314;28;20053;-84
2022/08/19 00:41:05;;;;;;;6.60;1.30;;;;;;;14.33;100.00;99962.03;5046984;28;20076;-84
2022/08/19 00:43:32;;;;;;;5.60;1.33;;;;;;;14.33;100.00;99971.72;5050927;28;20763;-82
2022/08/19 00:46:01;;;;;;;6.78;1.88;;;;;;;14.36;100.00;99982.03;5052570;28;20427;-83
2022/08/19 00:48:28;;;;;;;5.55;1.23;;;;;;;14.03;100.00;99975.41;5054797;28;20056;-83
2022/08/19 00:50:55;;;;;;;6.80;1.40;;;;;;;13.90;100.00;99969.22;5054458;28;20060;-82
2022/08/19 00:53:26;;;;;;;4.93;1.08;;;;;;;13.84;100.00;99965.19;5046877;28;20111;-84
2022/08/19 00:55:56;;;;;;;6.68;1.65;;;;;;;13.73;100.00;99979.03;5046747;28;20041;-84
2022/08/19 00:58:29;;;;;;;8.18;2.03;;;;;;;13.47;100.00;99967.50;5053806;28;20402;-84
2022/08/19 01:00:56;;;;;;;6.32;1.40;;;;;;;13.38;100.00;99963.66;5042211;28;20555;-84
2022/08/19 01:03:23;;;;;;;7.95;1.95;;;;;;;13.44;100.00;99973.81;5055346;28;20053;-82
2022/08/19 01:05:53;;;;;;;9.95;2.00;;;;;;;13.45;100.00;99972.00;5054232;28;20053;-82
2022/08/19 01:08:21;;;;;;;7.93;2.00;;;;;;;13.61;100.00;99964.03;5053598;28;20070;-83
2022/08/19 01:10:52;;;;;;;7.38;1.50;;;;;;;13.51;100.00;99966.38;5053846;28;20051;-82
2022/08/19 01:13:22;;;;;;;11.27;1.90;;;;;;;13.63;100.00;99976.16;5054360;28;20483;-83
2022/08/19 01:15:55;;;;;;;5.43;1.70;;;;;;;13.63;100.00;99978.78;5054010;28;20052;-82
2022/08/19 01:18:23;;;;;;;7.38;2.05;;;;;;;13.51;100.00;99982.16;5054283;28;20045;-83
2022/08/19 01:20:51;;;;;;;3.95;1.13;;;;;;;13.50;100.00;99987.53;5055099;28;20041;-83
2022/08/19 01:23:18;;;;;;;8.45;1.77;;;;;;;13.64;100.00;99984.88;5050687;28;20077;-83
2022/08/19 01:25:52;;;;;;;8.70;1.80;;;;;;;13.66;100.00;99996.97;5050835;28;20052;-83
2022/08/19 01:28:25;;;;;;;5.97;1.50;;;;;;;13.78;100.00;99998.00;5045450;28;20414;-83
2022/08/19 01:31:07;;;;;;;5.72;1.60;;;;;;;13.67;100.00;99998.69;5039618;28;20045;-82
2022/08/19 01:33:34;;;;;;;5.78;1.30;;;;;;;13.61;100.00;99993.78;5055015;28;20045;-82
2022/08/19 01:36:13;;;;;;;8.05;1.60;;;;;;;13.47;100.00;100007.81;5053867;28;20488;-83
2022/08/19 01:38:43;;;;;;;5.45;1.25;;;;;;;13.40;100.00;100000.38;5053335;28;20063;-82
2022/08/19 01:41:13;;;;;;;6.88;1.83;;;;;;;13.29;100.00;100006.25;5052926;28;20064;-83
2022/08/19 01:43:40;;;;;;;8.05;1.83;;;;;;;13.17;100.00;99996.47;5054588;28;20044;-83
2022/08/19 01:46:27;;;;;;;3.90;1.40;;;;;;;13.07;100.00;99993.56;5038985;28;20113;-83
2022/08/19 01:48:54;;;;;;;11.73;2.25;;;;;;;12.86;100.00;99993.06;5040169;28;20054;-83
2022/08/19 01:51:21;;;;;;;10.18;2.10;;;;;;;12.91;100.00;99997.09;5053132;28;20060;-83
2022/08/19 01:53:49;;;;;;;8.15;1.90;;;;;;;12.93;100.00;99986.50;5040834;28;20374;-83
2022/08/19 01:56:18;;;;;;;10.02;1.90;;;;;;;13.00;100.00;99994.88;5052824;28;20053;-83
2022/08/19 01:58:50;;;;;;;11.15;2.25;;;;;;;12.99;100.00;100007.16;5052615;28;20096;-83
2022/08/19 02:01:17;;;;;;;8.77;1.67;;;;;;;13.07;100.00;100006.72;5053633;28;20497;-83
2022/08/19 02:03:45;;;;;;;5.88;1.50;;;;;;;12.86;100.00;100009.66;5053640;28;20049;-83
2022/08/19 02:06:13;;;;;;;9.20;1.77;;;;;;;12.81;100.00;100003.81;5053232;28;20092;-83
2022/08/19 02:08:40;;;;;;;7.28;1.70;;;;;;;12.77;100.00;99986.56;5053221;28;20063;-83
2022/08/19 02:11:07;;;;;;;7.05;1.67;;;;;;;12.93;100.00;99997.00;5052467;28;20052;-82
2022/08/19 02:13:34;;;;;;;10.32;1.67;;;;;;;13.24;100.00;100010.94;5052886;28;20053;-82
2022/08/19 02:16:01;;;;;;;9.27;2.03;;;;;;;12.94;100.00;99998.69;5052923;28;20045;-83
2022/08/19 02:18:30;;;;;;;9.60;2.38;;;;;;;13.05;100.00;100022.56;5053601;28;20387;-82
2022/08/19 02:20:56;;;;;;;7.45;1.50;;;;;;;12.91;100.00;100019.91;5052838;28;20053;-83
2022/08/19 02:23:23;;;;;;;8.77;1.88;;;;;;;13.01;100.00;100015.78;5052914;28;20044;-83
2022/08/19 02:25:51;;;;;;;6.68;1.48;;;;;;;12.99;100.00;100022.91;5049142;28;20041;-82
2022/08/19 02:28:18;;;;;;;8.30;2.30;;;;;;;12.91;100.00;100010.25;5042108;28;20085;-82
2022/08/19 02:30:46;;;;;;;5.97;2.00;;;;;;;12.81;100.00;100008.25;5042591;28;20059;-83
2022/08/19 02:33:13;;;;;;;9.43;2.03;;;;;;;12.85;100.00;100007.94;5052253;28;20179;-83
2022/08/19 02:35:45;;;;;;;9.25;2.10;;;;;;;12.79;100.00;100018.00;5052528;28;20049;-83
2022/08/19 02:38:27;;;;;;;8.45;1.75;;;;;;;12.81;100.00;100019.59;5052589;28;20411;-82
2022/08/19 02:41:00;;;;;;;7.75;1.88;;;;;;;12.72;100.00;100013.09;5051837;28;20049;-84
2022/08/19 02:43:29;;;;;;;8.43;1.80;;;;;;;12.65;100.00;100010.91;5052168;28;20059;-83
2022/08/19 02:46:00;;;;;;;7.20;1.80;;;;;;;12.68;100.00;100027.34;5052220;28;20057;-82
2022/08/19 02:48:27;;;;;;;8.38;1.70;;;;;;;12.73;100.00;100014.78;5053174;28;20049;-82
2022/08/19 02:50:57;;;;;;;9.50;1.50;;;;;;;12.52;100.00;100016.88;5053594;28;20049;-83
2022/08/19 02:53:26;;;;;;;6.72;1.48;;;;;;;12.64;100.00;100028.47;5052555;28;20045;-83
2022/08/19 02:55:54;;;;;;;7.07;1.50;;;;;;;12.57;100.00;100028.88;5044176;28;20047;-83
2022/08/19 02:58:22;;;;;;;10.32;1.90;;;;;;;12.46;100.00;100027.69;5051907;28;20056;-83
2022/08/19 03:00:54;;;;;;;7.80;1.63;;;;;;;12.47;100.00;100041.69;5051871;28;20049;-83
2022/08/19 03:03:21;;;;;;;8.75;1.77;;;;;;;12.22;100.00;100029.13;5052456;28;20479;-83
2022/08/19 03:05:48;;;;;;;8.65;1.77;;;;;;;12.07;100.00;100029.00;5048659;28;20399;-82
2022/08/19 03:08:23;;;;;;;4.97;1.33;;;;;;;12.22;100.00;100023.88;5052274;28;20455;-82
2022/08/19 03:10:52;;;;;;;7.40;1.92;;;;;;;12.16;100.00;100043.41;5052111;28;20056;-82
2022/08/19 03:13:19;;;;;;;8.98;2.15;;;;;;;12.05;100.00;100037.91;5051966;28;20132;-82
2022/08/19 03:15:47;;;;;;;12.23;1.73;;;;;;;12.21;100.00;100045.78;5047227;28;20052;-83
2022/08/19 03:18:16;;;;;;;11.43;1.90;;;;;;;12.15;100.00;100046.97;5048973;28;20136;-83
2022/08/19 03:20:53;;;;;;;6.53;1.50;;;;;;;12.05;100.00;100053.66;5051846;28;20045;-83
2022/08/19 03:23:21;;;;;;;9.73;1.80;;;;;;;11.90;100.00;100050.94;5051537;28;20053;-83
2022/08/19 03:25:50;;;;;;;7.80;1.63;;;;;;;11.93;100.00;100057.78;5051952;28;20056;-82
2022/08/19 03:28:37;;;;;;;5.93;2.13;;;;;;;12.06;100.00;100048.31;5050179;28;20045;-82
2022/08/19 03:31:12;;;;;;;8.77;2.05;;;;;;;12.21;100.00;100053.66;5051033;28;20045;-82
2022/08/19 03:33:59;;;;;;;7.75;1.70;;;;;;;12.06;100.00;100032.56;5032095;28;20049;-82
2022/08/19 03:36:27;;;;;;;6.20;1.45;;;;;;;12.24;100.00;100040.38;5044147;28;20481;-83
2022/08/19 03:38:58;;;;;;;8.73;1.80;;;;;;;12.15;100.00;100047.81;5052636;28;20132;-82
2022/08/19 03:41:28;;;;;;;9.43;1.90;;;;;;;12.15;100.00;100047.81;5047681;28;20041;-82
2022/08/19 03:44:11;;;;;;;7.13;1.35;;;;;;;12.14;100.00;100046.09;5051237;28;20141;-83
2022/08/19 03:46:52;;;;;;;9.45;2.03;;;;;;;11.96;100.00;100055.00;5051567;28;20438;-82
2022/08/19 03:49:19;;;;;;;8.65;2.28;;;;;;;11.86;100.00;100051.97;5051379;28;20055;-83
2022/08/19 03:51:55;;;;;;;6.05;1.55;;;;;;;12.05;100.00;100049.25;5051464;28;20049;-83
2022/08/19 03:54:25;;;;;;;8.55;1.65;;;;;;;12.19;100.00;100052.91;5051655;28;20049;-82
2022/08/19 03:56:54;;;;;;;5.88;1.60;;;;;;;12.12;100.00;100063.72;5039906;28;20064;-83
2022/08/19 03:59:27;;;;;;;5.97;1.75;;;;;;;12.09;100.00;100057.78;5049904;28;20049;-82
2022/08/19 04:01:56;;;;;;;9.10;2.10;;;;;;;11.93;100.00;100057.78;5051547;28;20056;-82
2022/08/19 04:04:24;;;;;;;8.32;2.17;;;;;;;11.82;100.00;100053.06;5051200;28;20049;-82
2022/08/19 04:06:55;;;;;;;8.68;2.15;;;;;;;11.85;100.00;100054.69;5051824;28;20627;-83
2022/08/19 04:09:22;;;;;;;4.57;1.40;;;;;;;11.99;100.00;100072.31;5051180;28;20063;-83
2022/08/19 04:11:53;;;;;;;16.05;2.58;;;;;;;11.82;100.00;100067.97;5050538;28;20049;-82
2022/08/19 04:14:24;;;;;;;7.05;2.30;;;;;;;11.83;100.00;100074.91;5052209;28;20061;-83
2022/08/19 04:16:52;;;;;;;6.78;1.45;;;;;;;11.95;100.00;100087.38;5051268;28;20407;-82
2022/08/19 04:19:19;;;;;;;10.40;2.35;;;;;;;11.70;100.00;100078.16;5051177;28;20064;-82
2022/08/19 04:21:49;;;;;;;7.45;2.67;;;;;;;11.88;100.00;100094.72;5052989;28;20045;-83
2022/08/19 04:24:16;;;;;;;5.78;1.30;;;;;;;12.12;100.00;100087.34;5054899;28;20055;-83
2022/08/19 04:26:45;;;;;;;6.70;1.75;;;;;;;12.15;100.00;100073.22;5047052;28;20395;-83
2022/08/19 04:29:16;;;;;;;5.95;1.60;;;;;;;12.28;100.00;100084.72;5055573;28;20055;-82
2022/08/19 04:31:44;;;;;;;6.25;1.50;;;;;;;12.24;100.00;100075.31;5054566;28;20045;-82
2022/08/19 04:34:14;;;;;;;5.75;1.40;;;;;;;12.32;100.00;100103.75;5054672;28;20062;-83
2022/08/19 04:36:45;;;;;;;7.65;2.10;;;;;;;12.24;100.00;100098.09;5054834;28;20041;-82
2022/08/19 04:39:16;;;;;;;8.85;1.90;;;;;;;12.19;100.00;100095.72;5041341;28;20045;-82
2022/08/19 04:44:34;;;;;;;10.63;2.03;;;;;;;12.34;100.00;100104.53;5044217;28;20048;-82
2022/08/19 04:47:05;;;;;;;11.20;2.65;;;;;;;12.37;100.00;100091.25;5054880;28;20502;-82
2022/08/19 04:49:36;;;;;;;12.65;3.05;;;;;;;12.35;100.00;100096.56;5054438;28;20454;-83
2022/08/19 04:52:03;;;;;;;7.70;2.03;;;;;;;12.47;100.00;100086.34;5055074;28;20053;-83
2022/08/19 04:54:30;;;;;;;11.70;2.13;;;;;;;12.44;100.00;100076.84;5054832;28;20052;-82
2022/08/19 04:57:07;;;;;;;7.47;1.83;;;;;;;12.50;100.00;100094.88;5054856;28;20049;-83
2022/08/19 04:59:35;;;;;;;13.32;2.13;;;;;;;12.24;100.00;100090.22;5040885;28;20049;-83
2022/08/19 05:02:02;;;;;;;9.77;1.92;;;;;;;12.28;100.00;100102.25;5054275;28;20055;-83
2022/08/19 05:04:30;;;;;;;8.60;2.35;;;;;;;12.32;100.00;100085.38;5054133;28;20055;-83
2022/08/19 05:06:57;;;;;;;7.75;2.08;;;;;;;12.37;100.00;100099.09;5045683;28;20045;-83
2022/08/19 05:09:26;;;;;;;8.07;2.33;;;;;;;12.60;100.00;100092.56;5054441;28;20069;-82
2022/08/19 05:12:13;;;;;;;9.18;2.17;;;;;;;12.68;100.00;100105.31;5054666;28;20057;-83
2022/08/19 05:14:40;;;;;;;9.13;2.08;;;;;;;12.77;100.00;100111.81;5054411;28;20049;-83
2022/08/19 05:17:07;;;;;;;10.25;2.05;;;;;;;12.78;100.00;100101.19;5053685;28;20055;-82
2022/08/19 05:22:39;;;;;;;11.02;2.45;;;;;;;12.69;100.00;100109.59;5049154;28;20045;-83
2022/08/19 05:25:12;;;;;;;6.47;1.70;;;;;;;12.80;100.00;100109.00;5054266;28;20071;-83
2022/08/19 05:27:41;;;;;;;9.27;2.20;;;;;;;13.02;100.00;100112.09;5053806;28;20049;-83
2022/08/19 05:30:10;;;;;;;8.35;1.80;;;;;;;12.94;100.00;100106.41;5049697;28;20167;-83
2022/08/19 05:32:37;;;;;;;10.75;3.15;;;;;;;12.81;100.00;100080.00;5045067;28;20084;-83
2022/08/19 05:35:05;;;;;;;11.50;2.05;;;;;;;12.98;100.00;100104.47;5053701;28;20053;-83
2022/08/19 05:37:32;;;;;;;9.10;2.08;;;;;;;12.99;100.00;100120.13;5053898;28;20049;-83
2022/08/19 05:39:59;;;;;;;9.20;2.05;;;;;;;13.09;100.00;100125.72;5040469;28;20057;-82
2022/08/19 05:42:26;;;;;;;8.35;2.13;;;;;;;13.09;100.00;100123.09;5052827;28;20102;-83
2022/08/19 05:44:55;;;;;;;10.80;2.20;;;;;;;12.82;100.00;100080.84;5053851;28;20049;-83
2022/08/19 05:47:22;;;;;;;15.93;3.08;;;;;;;12.91;100.00;100082.97;5054926;28;20131;-82
2022/08/19 05:49:50;;;;;;;12.48;2.03;;;;;;;12.80;100.00;100053.81;5054566;28;20053;-83
2022/08/19 05:52:18;;;;;;;10.35;2.30;;;;;;;12.96;100.00;100086.19;5053912;28;20056;-82
2022/08/19 05:54:54;;;;;;;11.32;2.42;;;;;;;13.06;100.00;100100.44;5054343;28;20072;-81
2022/08/19 05:57:22;;;;;;;8.10;2.20;;;;;;;13.24;100.00;100121.34;5053812;28;20088;-83
2022/08/19 05:59:51;;;;;;;8.60;2.03;;;;;;;13.42;100.00;100120.31;5048068;28;20049;-82
2022/08/19 06:02:27;;;;;;;10.23;2.05;;;;;;;13.57;100.00;100130.84;5050539;28;20103;-85
2022/08/19 06:04:54;;;;;;;8.77;2.10;;;;;;;13.61;100.00;100132.34;5053489;28;20651;-82
2022/08/19 06:07:21;;;;;;;8.35;1.95;;;;;;;13.78;100.00;100144.50;5052989;28;20048;-82
2022/08/19 06:09:48;;;;;;;9.93;2.72;;;;;;;13.54;100.00;100113.47;5040655;28;20044;-82
2022/08/19 06:12:28;;;;;;;10.55;2.00;;;;;;;13.39;100.00;100128.38;5054908;28;20128;-83
2022/08/19 06:14:55;;;;;;;10.05;2.63;;;;;;;13.42;100.00;100111.56;5041485;28;20457;-83
2022/08/19 06:17:30;;;;;;;12.52;2.75;;;;;;;13.67;100.00;100130.22;5053489;28;20136;-83
2022/08/19 06:19:58;;;;;;;11.43;3.30;;;;;;;13.33;100.00;100110.31;5050913;28;20048;-83
2022/08/19 06:22:26;;;;;;;10.75;2.10;;;;;;;13.51;100.00;100146.97;5053295;28;20049;-83
2022/08/19 06:24:53;;;;;;;13.63;2.55;;;;;;;13.60;100.00;100146.47;5053551;28;20407;-82
2022/08/19 06:27:21;;;;;;;11.00;2.28;;;;;;;13.63;100.00;100144.50;5054062;28;20132;-83
2022/08/19 06:29:48;;;;;;;9.68;2.28;;;;;;;13.42;100.00;100108.94;5053351;28;20398;-83
2022/08/19 06:32:18;;;;;;;11.27;2.47;;;;;;;13.88;100.00;100147.41;5052956;28;20045;-83
2022/08/19 06:34:44;;;;;;;15.80;2.70;;;;;;;14.44;100.00;100130.72;5052793;28;20124;-81
2022/08/19 06:37:11;;;;;;;12.38;2.45;;;;;;;15.27;100.00;100107.88;5054195;28;20055;-83
2022/08/19 06:39:41;;;;;;;13.50;2.75;;;;;;;15.45;100.00;100133.00;5050194;28;20435;-82
2022/08/19 06:42:11;;;;;;;12.43;2.10;;;;;;;16.38;100.00;100161.81;5050644;28;20052;-83
2022/08/19 06:44:40;;;;;;;8.15;2.30;;;;;;;16.08;100.00;100115.50;5053257;28;20475;-83
2022/08/19 06:47:19;;;;;;;11.02;2.20;;;;;;;16.36;100.00;100161.09;5054158;28;20128;-81
2022/08/19 06:49:59;;;;;;;13.80;2.08;;;;;;;16.37;100.00;100104.66;5052750;28;20090;-81
2022/08/19 06:52:34;;;;;;;11.02;2.33;;;;;;;17.11;100.00;100138.13;5054238;28;20053;-83
2022/08/19 06:55:03;;;;;;;12.88;2.45;;;;;;;17.51;100.00;100154.50;5052945;28;20041;-84
2022/08/19 06:57:33;;;;;;;9.52;1.98;;;;;;;17.59;100.00;100130.91;5052508;28;20049;-83
2022/08/19 07:00:00;;;;;;;9.18;1.90;;;;;;;17.93;100.00;100138.09;5042902;28;20057;-83
2022/08/19 07:02:27;;;;;;;11.77;2.20;;;;;;;18.02;100.00;100153.25;5049511;28;20044;-83
2022/08/19 07:04:53;;;;;;;9.88;1.65;;;;;;;17.78;100.00;100118.91;5052365;28;20055;-82
2022/08/19 07:07:22;;;;;;;9.68;2.20;;;;;;;17.62;100.00;100140.44;5053917;28;20053;-83
2022/08/19 07:09:50;;;;;;;11.98;2.85;;;;;;;17.78;100.00;100166.56;5052260;28;20049;-82
2022/08/19 07:12:34;;;;;;;9.25;1.92;;;;;;;17.86;100.00;100129.75;5052568;28;20071;-83
2022/08/19 07:15:08;;;;;;;8.35;2.22;;;;;;;18.34;100.00;100140.13;5053630;28;20446;-83
2022/08/19 07:17:37;;;;;;;10.57;2.08;;;;;;;19.00;100.00;100159.63;5053435;28;20052;-82
2022/08/19 07:20:07;;;;;;;8.63;1.95;;;;;;;18.69;100.00;100165.59;5052337;28;20588;-83
2022/08/19 07:22:37;;;;;;;11.52;1.92;;;;;;;18.73;100.00;100163.53;5053272;28;20053;-84
2022/08/19 07:25:06;;;;;;;9.80;2.60;;;;;;;19.29;100.00;100150.09;5045410;28;20124;-82
2022/08/19 07:27:34;;;;;;;8.77;2.15;;;;;;;19.44;100.00;100176.34;5053867;28;20049;-83
2022/08/19 07:30:01;;;;;;;9.90;1.73;;;;;;;19.08;100.00;100166.00;5053360;28;20048;-83
2022/08/19 07:32:28;;;;;;;7.90;1.58;;;;;;;19.10;100.00;100147.31;5052086;28;20047;-83
2022/08/19 07:34:55;;;;;;;9.35;1.70;;;;;;;19.11;100.00;100165.75;5053337;28;20041;-83
2022/08/19 07:37:26;;;;;;;8.07;1.83;;;;;;;19.44;100.00;100177.19;5049458;28;20049;-84
2022/08/19 07:39:58;;;;;;;10.70;1.80;;;;;;;19.86;100.00;100192.31;5051469;28;20053;-83
2022/08/19 07:42:26;;;;;;;7.00;1.70;;;;;;;20.17;100.00;100210.91;5051644;28;20068;-83
2022/08/19 07:44:53;;;;;;;8.25;1.80;;;;;;;19.68;100.00;100192.03;5052858;28;20170;-83
2022/08/19 07:47:19;;;;;;;11.10;1.85;;;;;;;19.95;100.00;100190.69;5052201;28;20055;-83
2022/08/19 07:50:10;;;;;;;7.18;1.60;;;;;;;20.44;100.00;100207.69;5049047;28;20384;-83
2022/08/19 07:52:43;;;;;;;8.57;1.50;;;;;;;20.41;100.00;100155.63;5050790;28;20056;-83
2022/08/19 07:55:14;;;;;;;7.47;1.63;;;;;;;20.75;100.00;100203.22;5052979;28;20073;-84
2022/08/19 07:58:01;;;;;;;7.80;1.98;;;;;;;20.62;100.00;100163.53;5040416;28;20399;-83
2022/08/19 08:00:30;;;;;;;6.88;1.25;;;;;;;20.88;100.00;100186.16;5051606;28;20052;-83
2022/08/19 08:02:57;;;;;;;4.88;1.35;;;;;;;20.54;100.00;100186.44;5039169;28;20069;-83
2022/08/19 08:10:57;;;;;;;6.55;1.48;;;;;;;21.08;100.00;100193.16;5051341;28;20048;-84
2022/08/19 08:13:26;;;;;;;8.77;1.50;;;;;;;21.28;95.49;100209.97;5040806;28;20138;-84
2022/08/19 08:15:53;;;;;;;7.63;1.25;;;;;;;20.94;100.00;100166.97;5051281;28;20119;-84
2022/08/19 08:18:25;;;;;;;7.32;1.60;;;;;;;21.15;100.00;100212.91;5046227;28;20545;-84
2022/08/19 08:20:56;;;;;;;6.75;1.25;;;;;;;20.95;99.15;100222.72;5045840;28;20095;-82
2022/08/19 08:23:28;;;;;;;6.65;1.30;;;;;;;20.57;100.00;100196.81;5051424;28;20049;-83
2022/08/19 08:25:56;;;;;;;6.05;1.15;;;;;;;20.52;100.00;100193.72;5052899;28;20049;-83
2022/08/19 08:28:25;;;;;;;10.73;1.40;;;;;;;20.34;100.00;100170.41;5051547;28;20044;-83
2022/08/19 08:30:56;;;;;;;8.40;1.35;;;;;;;20.16;100.00;100218.06;5050998;28;20467;-83
2022/08/19 08:33:25;;;;;;;6.55;1.30;;;;;;;20.31;100.00;100210.59;5037369;28;20051;-83
2022/08/19 08:36:07;;;;;;;7.68;1.63;;;;;;;19.89;100.00;100214.13;5040406;28;20054;-84
2022/08/19 08:38:34;;;;;;;5.70;1.00;;;;;;;20.56;100.00;100209.28;5051754;28;20065;-83
2022/08/19 08:41:19;;;;;;;7.30;1.70;;;;;;;20.78;99.55;100183.47;5052364;28;20052;-84
2022/08/19 08:43:51;;;;;;;8.52;1.60;;;;;;;20.29;100.00;100194.78;5052402;28;20052;-83
2022/08/19 08:46:28;;;;;;;9.25;1.55;;;;;;;20.24;100.00;100220.06;5042762;28;20147;-84
2022/08/19 08:49:28;;;;;;;6.97;1.30;;;;;;;20.42;98.12;100217.63;5045003;28;20136;-83
2022/08/19 08:52:04;;;;;;;9.52;1.63;;;;;;;20.42;95.18;100213.16;5057333;28;20042;-84
2022/08/19 08:54:46;;;;;;;8.32;1.83;;;;;;;20.19;92.96;100179.75;5039001;28;20475;-84
2022/08/19 08:57:33;;;;;;;9.02;1.65;;;;;;;20.25;95.17;100225.22;5038772;28;20050;-84
2022/08/19 09:00:16;;;;;;;6.15;1.60;;;;;;;19.97;99.06;100225.91;5051156;28;20067;-84
2022/08/19 09:02:44;;;;;;;7.93;1.52;;;;;;;19.61;100.00;100197.00;5041864;28;20075;-83
2022/08/19 09:05:20;;;;;;;7.95;1.60;;;;;;;19.87;100.00;100192.19;5051714;28;20055;-84
2022/08/19 09:08:13;;;;;;;7.15;2.03;;;;;;;20.03;100.00;100225.41;5051909;28;20048;-84
2022/08/19 09:10:40;;;;;;;6.22;1.27;;;;;;;19.43;100.00;100231.25;5048208;28;20132;-83
2022/08/19 09:13:31;;;;;;;5.75;1.20;;;;;;;19.41;100.00;100232.38;5041812;28;20052;-83
2022/08/19 09:16:16;;;;;;;6.22;1.40;;;;;;;20.12;100.00;100223.78;5040715;28;20136;-84
2022/08/19 09:18:53;;;;;;;;;;;;;;;20.51;98.98;100215.97;5056261;28;20616;-84
2022/08/19 09:21:22;;;;;;;8.65;1.80;;;;;;;19.73;100.00;100169.44;5051208;28;19921;-84
2022/08/19 09:23:58;;;;;;;4.90;1.10;;;;;;;20.38;100.00;100189.59;5034440;28;20403;-84
2022/08/19 09:26:26;;;;;;;6.20;1.42;;;;;;;20.03;97.08;100156.34;5039867;28;20065;-83
2022/08/19 09:29:13;;;;;;;7.25;1.40;;;;;;;19.49;100.00;100155.56;5055019;28;20053;-83
2022/08/19 09:31:40;;;;;;;6.13;1.30;;;;;;;19.96;100.00;100189.72;5054258;28;20422;-83
2022/08/19 09:34:08;;;;;;;9.43;1.52;;;;;;;19.42;100.00;100170.31;5055253;28;20059;-83
2022/08/19 09:36:54;;;;;;;6.05;1.35;;;;;;;20.07;100.00;100201.09;5054917;28;20045;-84
2022/08/19 09:39:21;;;;;;;4.95;1.17;;;;;;;19.92;100.00;100163.41;5053126;28;20091;-83
2022/08/19 09:41:49;;;;;;;6.53;1.20;;;;;;;20.33;99.40;100218.41;5043101;28;20049;-83
2022/08/19 09:44:17;;;;;;;4.82;1.58;;;;;;;20.78;95.33;100208.25;5053972;28;20475;-84
2022/08/19 09:46:46;;;;;;;8.07;1.80;;;;;;;20.97;93.32;100180.84;5047521;28;20050;-84
2022/08/19 09:49:14;;;;;;;5.65;1.13;;;;;;;21.11;91.20;100200.88;5052576;28;20099;-84
2022/08/19 09:51:44;;;;;;;8.15;1.33;;;;;;;21.16;91.28;100173.81;5054103;28;20086;-84
2022/08/19 09:54:17;;;;;;;8.65;1.40;;;;;;;21.02;93.48;100215.84;5054011;28;20302;-84
2022/08/19 09:56:50;;;;;;;5.82;1.20;;;;;;;20.42;87.18;100167.94;5054058;28;20395;-84
2022/08/19 09:59:16;;;;;;;3.55;1.00;;;;;;;21.51;85.16;100210.56;5053601;28;20052;-82
2022/08/19 10:01:43;;;;;;;5.10;0.98;;;;;;;21.28;82.65;100204.66;5046460;28;20048;-83
2022/08/19 10:04:11;;;;;;;5.80;1.33;;;;;;;21.54;78.73;100220.94;5050974;28;20080;-84
2022/08/19 10:06:47;;;;;;;5.88;1.30;;;;;;;20.34;77.94;100186.38;5046492;28;20042;-83
2022/08/19 10:09:18;;;;;;;;;;;;;;;20.41;82.05;100232.72;5037401;28;20080;-83
2022/08/19 10:12:01;;;;;;;6.40;1.10;;;;;;;20.15;86.52;100199.59;5053433;28;20405;-82
2022/08/19 10:14:28;;;;;;;5.35;1.10;;;;;;;19.69;92.00;100159.19;5054606;28;21708;-84
2022/08/19 10:16:56;;;;;;;5.03;1.02;;;;;;;19.85;93.73;100172.88;5052509;28;20044;-84
2022/08/19 10:19:25;;;;;;;6.70;1.25;;;;;;;20.49;94.29;100178.88;5053885;28;20060;-84
2022/08/19 10:21:53;;;;;;;6.88;1.30;;;;;;;20.70;90.73;100149.56;5051282;28;20045;-84
2022/08/19 10:24:24;;;;;;;8.10;1.42;;;;;;;20.93;92.45;100197.19;5054110;28;20060;-84
2022/08/19 10:26:51;;;;;;;8.88;1.40;;;;;;;20.85;85.43;100195.22;5050785;28;20151;-84
2022/08/19 10:29:24;;;;;;;5.32;1.10;;;;;;;21.16;83.35;100155.19;5054115;28;20053;-84
2022/08/19 10:32:01;;;;;;;7.25;1.35;;;;;;;20.92;82.08;100156.44;5039575;28;20124;-84
2022/08/19 10:34:29;;;;;;;4.20;0.90;;;;;;;21.22;83.41;100191.91;5053015;28;20049;-84
2022/08/19 10:36:57;;;;;;;7.05;1.38;;;;;;;20.86;81.02;100176.47;5049111;28;20136;-84
2022/08/19 10:39:31;;;;;;;6.28;1.30;;;;;;;21.18;79.08;100158.56;5052930;28;20060;-84
2022/08/19 10:42:12;;;;;;;5.82;1.27;;;;;;;21.24;77.50;100179.28;5053151;28;20044;-85
2022/08/19 10:44:40;;;;;;;6.20;1.13;;;;;;;21.13;77.77;100184.78;5052786;28;20394;-85
2022/08/19 10:47:08;;;;;;;7.28;1.25;;;;;;;21.07;80.33;100167.53;5043281;28;20049;-85
2022/08/19 10:52:44;;;;;;;6.38;1.27;;;;;;;21.37;81.90;100206.50;5053119;28;20132;-83
2022/08/19 10:58:23;;;;;;;4.68;1.17;;;;;;;21.34;81.06;100201.44;5041526;28;20059;-83
2022/08/19 11:00:57;;;;;;;7.88;1.60;;;;;;;21.31;82.66;100207.03;5052737;28;20055;-83
2022/08/19 11:03:27;;;;;;;6.55;1.17;;;;;;;20.89;79.94;100186.00;5044019;28;20396;-84
2022/08/19 11:06:06;;;;;;;4.43;1.15;;;;;;;21.00;83.63;100208.97;5048104;28;20513;-83
2022/08/19 11:08:34;;;;;;;5.07;1.02;;;;;;;20.95;84.92;100216.56;5052179;28;20049;-83
2022/08/19 11:11:03;;;;;;;4.88;1.08;;;;;;;20.34;86.74;100212.97;5051844;28;20048;-83
2022/08/19 11:13:33;;;;;;;6.38;1.20;;;;;;;20.40;84.94;100177.88;5051903;28;20107;-83
2022/08/19 11:16:09;;;;;;;5.70;1.33;;;;;;;20.87;84.10;100217.22;5051149;28;20055;-83
2022/08/19 11:18:42;;;;;;;7.00;1.20;;;;;;;20.56;84.52;100185.34;5035261;28;20051;-83
2022/08/19 11:21:19;;;;;;;4.03;1.00;;;;;;;20.69;85.85;100221.53;5047336;28;20051;-83
2022/08/19 11:23:49;;;;;;;4.72;1.20;;;;;;;20.66;88.32;100211.97;5043608;28;20539;-83
2022/08/19 11:26:17;;;;;;;7.00;1.55;;;;;;;20.69;86.61;100213.53;5047600;28;20045;-84
2022/08/19 11:28:44;;;;;;;7.57;1.60;;;;;;;20.97;82.50;100218.09;5053113;28;20379;-83
2022/08/19 11:31:23;;;;;;;3.60;1.00;;;;;;;20.68;81.56;100196.72;5049984;28;20051;-83
2022/08/19 11:33:57;;;;;;;3.72;1.05;;;;;;;20.61;81.69;100193.78;5042040;28;20110;-83
2022/08/19 11:36:24;;;;;;;5.35;1.40;;;;;;;20.04;83.41;100161.50;5041906;28;20132;-83
2022/08/19 11:38:51;;;;;;;3.60;1.05;;;;;;;20.44;82.72;100192.56;5052928;28;20487;-83
2022/08/19 11:41:20;;;;;;;3.63;1.17;;;;;;;20.84;82.32;100202.38;5051681;28;20083;-82
2022/08/19 11:43:47;;;;;;;7.95;1.45;;;;;;;20.78;79.37;100164.84;5051750;28;20049;-83
2022/08/19 11:46:16;;;;;;;5.22;0.90;;;;;;;21.02;79.39;100220.34;5051105;28;20546;-83
2022/08/19 11:48:43;;;;;;;4.63;1.02;;;;;;;20.26;79.71;100208.31;5051565;28;20556;-84
2022/08/19 11:51:15;;;;;;;4.78;1.00;;;;;;;20.55;80.80;100210.25;5049036;28;20041;-83
2022/08/19 11:53:42;;;;;;;7.85;1.33;;;;;;;20.55;78.12;100202.25;5045328;28;20056;-83